Shinkai Maru — JJ4012 — position and weather

sailwx.info

Track history (hours):
 
Tides and Currents Weather Stations Pressure Air Temp Water Temp Dewpoint Dewpoint Depression Visibility Wind Speed Wind Dir Waves Ship Positions

Shinkai Maru

Last reported at 2014-Oct-01 03:33 UTC. Time now 2014-Oct-01 04:11 UTC.
Position N 35°25' E 139°43'.

Length 76 m; draft 3.4 m.

Type: Cargo ship. MMSI: 431301346.

Date/timePositionNaut miles runAvg speedWind from/ knotsBaromVisibWave heightAir tempDewpointWater temp
2014-Oct-01 03:33N 35°25' E 139°43'4 0.2
2014-Sep-30 05:31N 35°25' E 139°48'1010.2
2014-Sep-30 04:33N 35°16' E 139°47'245 9.1
2014-Sep-29 01:32N 34°14' E 134°59'1110.2
2014-Sep-29 00:27N 34°25' E 135°00'910.5
2014-Sep-28 23:33N 34°34' E 135°03'9 0.2
2014-Sep-26 22:24N 34°37' E 134°53'1011.8
2014-Sep-26 21:33N 34°35' E 135°05'1512.5
2014-Sep-26 20:22N 34°21' E 135°01'911.3
2014-Sep-26 19:33N 34°11' E 134°60'9 0.2
2014-Sep-25 00:30N 34°19' E 135°04'5 4.8
2014-Sep-24 23:31N 34°21' E 135°09'4 0.2
2014-Sep-24 00:33N 34°26' E 135°09'1211.9
2014-Sep-23 23:33N 34°38' E 135°11'2 1.9
2014-Sep-23 22:26N 34°40' E 135°12'0 0.0
2014-Sep-23 21:32N 34°40' E 135°12'0 0.0
2014-Sep-23 20:32N 34°40' E 135°12'0 0.0
2014-Sep-23 19:32N 34°40' E 135°12'0 0.0
2014-Sep-23 18:32N 34°40' E 135°12'0 0.1
2014-Sep-23 17:33N 34°40' E 135°12'10 9.9
2014-Sep-23 16:32N 34°37' E 134°60'7 0.4
2014-Sep-23 00:06N 34°39' E 134°52'713.3
2014-Sep-22 23:33N 34°38' E 135°00'1111.2
2014-Sep-22 22:32N 34°26' E 135°03'1212.6
2014-Sep-22 21:33N 34°14' E 134°59'1312.3
2014-Sep-22 20:32N 34°02' E 135°01'  
Track history (hours):
 
Tides and Currents Weather Stations Pressure Air Temp Water Temp Dewpoint Dewpoint Depression Visibility Wind Speed Wind Dir Waves Ship Positions

Shinkai Maru

Last reported at 2014-Oct-01 03:33 UTC. Time now 2014-Oct-01 04:11 UTC.
Position N 35°25' E 139°43'.

Length 76 m; draft 3.4 m.

Type: Cargo ship. MMSI: 431301346.

Date/timePositionNaut miles runAvg speedWind from/ knotsBaromVisibWave heightAir tempDewpointWater temp
2014-Oct-01 03:33N 35°25' E 139°43'4 0.2
2014-Sep-30 05:31N 35°25' E 139°48'1010.2
2014-Sep-30 04:33N 35°16' E 139°47'245 9.1
2014-Sep-29 01:32N 34°14' E 134°59'1110.2
2014-Sep-29 00:27N 34°25' E 135°00'910.5
2014-Sep-28 23:33N 34°34' E 135°03'9 0.2
2014-Sep-26 22:24N 34°37' E 134°53'1011.8
2014-Sep-26 21:33N 34°35' E 135°05'1512.5
2014-Sep-26 20:22N 34°21' E 135°01'911.3
2014-Sep-26 19:33N 34°11' E 134°60'9 0.2
2014-Sep-25 00:30N 34°19' E 135°04'5 4.8
2014-Sep-24 23:31N 34°21' E 135°09'4 0.2
2014-Sep-24 00:33N 34°26' E 135°09'1211.9
2014-Sep-23 23:33N 34°38' E 135°11'2 1.9
2014-Sep-23 22:26N 34°40' E 135°12'0 0.0
2014-Sep-23 21:32N 34°40' E 135°12'0 0.0
2014-Sep-23 20:32N 34°40' E 135°12'0 0.0
2014-Sep-23 19:32N 34°40' E 135°12'0 0.0
2014-Sep-23 18:32N 34°40' E 135°12'0 0.1
2014-Sep-23 17:33N 34°40' E 135°12'10 9.9
2014-Sep-23 16:32N 34°37' E 134°60'7 0.4
2014-Sep-23 00:06N 34°39' E 134°52'713.3
2014-Sep-22 23:33N 34°38' E 135°00'1111.2
2014-Sep-22 22:32N 34°26' E 135°03'1212.6
2014-Sep-22 21:33N 34°14' E 134°59'1312.3
2014-Sep-22 20:32N 34°02' E 135°01'  

Dump ship's entire track history